sensor_id;sensor_type;location;lat;lon;timestamp;P1;durP1;ratioP1;P2;durP2;ratioP2
12838;SDS011;6486;51.034;5.262;2022-12-18T00:01:16;14.37;;;6.40;;
12838;SDS011;6486;51.034;5.262;2022-12-18T00:03:45;13.43;;;7.33;;
12838;SDS011;6486;51.034;5.262;2022-12-18T00:06:11;28.03;;;6.77;;
12838;SDS011;6486;51.034;5.262;2022-12-18T00:08:38;16.83;;;7.10;;
12838;SDS011;6486;51.034;5.262;2022-12-18T00:11:05;19.17;;;7.43;;
12838;SDS011;6486;51.034;5.262;2022-12-18T00:13:32;15.10;;;5.27;;
12838;SDS011;6486;51.034;5.262;2022-12-18T00:16:05;15.20;;;6.40;;
12838;SDS011;6486;51.034;5.262;2022-12-18T00:18:32;15.33;;;6.90;;
12838;SDS011;6486;51.034;5.262;2022-12-18T00:20:59;17.60;;;6.20;;
12838;SDS011;6486;51.034;5.262;2022-12-18T00:23:26;16.27;;;6.23;;
12838;SDS011;6486;51.034;5.262;2022-12-18T00:25:52;13.17;;;6.70;;
12838;SDS011;6486;51.034;5.262;2022-12-18T00:28:18;21.87;;;7.40;;
12838;SDS011;6486;51.034;5.262;2022-12-18T00:30:44;12.93;;;6.27;;
12838;SDS011;6486;51.034;5.262;2022-12-18T00:33:09;19.47;;;7.67;;
12838;SDS011;6486;51.034;5.262;2022-12-18T00:35:35;11.30;;;4.87;;
12838;SDS011;6486;51.034;5.262;2022-12-18T00:38:00;13.43;;;6.70;;
12838;SDS011;6486;51.034;5.262;2022-12-18T00:40:26;15.97;;;7.20;;
12838;SDS011;6486;51.034;5.262;2022-12-18T00:42:51;18.63;;;5.87;;
12838;SDS011;6486;51.034;5.262;2022-12-18T00:45:20;20.60;;;6.40;;
12838;SDS011;6486;51.034;5.262;2022-12-18T00:47:47;16.37;;;6.73;;
12838;SDS011;6486;51.034;5.262;2022-12-18T00:50:13;16.17;;;6.00;;
12838;SDS011;6486;51.034;5.262;2022-12-18T00:52:38;12.57;;;5.30;;
12838;SDS011;6486;51.034;5.262;2022-12-18T00:55:04;20.47;;;6.87;;
12838;SDS011;6486;51.034;5.262;2022-12-18T00:57:30;12.27;;;6.67;;
12838;SDS011;6486;51.034;5.262;2022-12-18T00:59:55;11.03;;;4.23;;
12838;SDS011;6486;51.034;5.262;2022-12-18T01:02:21;17.47;;;6.03;;
12838;SDS011;6486;51.034;5.262;2022-12-18T01:04:46;15.67;;;7.63;;
12838;SDS011;6486;51.034;5.262;2022-12-18T01:07:12;16.73;;;5.87;;
12838;SDS011;6486;51.034;5.262;2022-12-18T01:09:37;12.87;;;5.57;;
12838;SDS011;6486;51.034;5.262;2022-12-18T01:12:03;15.83;;;6.67;;
12838;SDS011;6486;51.034;5.262;2022-12-18T01:14:29;15.50;;;5.83;;
12838;SDS011;6486;51.034;5.262;2022-12-18T01:16:54;21.40;;;6.60;;
12838;SDS011;6486;51.034;5.262;2022-12-18T01:19:20;14.27;;;6.57;;
12838;SDS011;6486;51.034;5.262;2022-12-18T01:21:46;8.37;;;3.93;;
12838;SDS011;6486;51.034;5.262;2022-12-18T01:24:11;18.80;;;6.73;;
12838;SDS011;6486;51.034;5.262;2022-12-18T01:26:37;11.63;;;5.63;;
12838;SDS011;6486;51.034;5.262;2022-12-18T01:29:03;14.93;;;6.57;;
12838;SDS011;6486;51.034;5.262;2022-12-18T01:31:29;13.77;;;5.80;;
12838;SDS011;6486;51.034;5.262;2022-12-18T01:33:56;16.17;;;5.90;;
12838;SDS011;6486;51.034;5.262;2022-12-18T01:36:26;14.30;;;6.40;;
12838;SDS011;6486;51.034;5.262;2022-12-18T01:38:53;12.00;;;5.83;;
12838;SDS011;6486;51.034;5.262;2022-12-18T01:41:21;15.23;;;5.47;;
12838;SDS011;6486;51.034;5.262;2022-12-18T01:43:52;12.33;;;4.80;;
12838;SDS011;6486;51.034;5.262;2022-12-18T01:46:23;16.40;;;5.53;;
12838;SDS011;6486;51.034;5.262;2022-12-18T01:48:50;11.50;;;5.77;;
12838;SDS011;6486;51.034;5.262;2022-12-18T01:51:20;17.27;;;4.83;;
12838;SDS011;6486;51.034;5.262;2022-12-18T01:53:46;15.43;;;4.83;;
12838;SDS011;6486;51.034;5.262;2022-12-18T01:56:13;15.73;;;5.33;;
12838;SDS011;6486;51.034;5.262;2022-12-18T02:01:10;15.77;;;4.87;;
12838;SDS011;6486;51.034;5.262;2022-12-18T02:03:35;18.97;;;7.07;;
12838;SDS011;6486;51.034;5.262;2022-12-18T02:06:09;15.00;;;5.33;;
12838;SDS011;6486;51.034;5.262;2022-12-18T02:08:53;10.23;;;5.57;;
12838;SDS011;6486;51.034;5.262;2022-12-18T02:11:39;13.30;;;5.37;;
12838;SDS011;6486;51.034;5.262;2022-12-18T02:14:28;12.30;;;5.73;;
12838;SDS011;6486;51.034;5.262;2022-12-18T02:19:44;17.27;;;4.80;;
12838;SDS011;6486;51.034;5.262;2022-12-18T02:22:44;10.33;;;5.70;;
12838;SDS011;6486;51.034;5.262;2022-12-18T02:27:40;16.87;;;6.20;;
12838;SDS011;6486;51.034;5.262;2022-12-18T02:30:09;27.63;;;7.63;;
12838;SDS011;6486;51.034;5.262;2022-12-18T02:32:37;11.80;;;5.13;;
12838;SDS011;6486;51.034;5.262;2022-12-18T02:35:13;12.13;;;5.17;;
12838;SDS011;6486;51.034;5.262;2022-12-18T02:37:42;14.97;;;6.00;;
12838;SDS011;6486;51.034;5.262;2022-12-18T02:40:09;14.00;;;5.77;;
12838;SDS011;6486;51.034;5.262;2022-12-18T02:42:36;7.03;;;5.03;;
12838;SDS011;6486;51.034;5.262;2022-12-18T02:45:02;8.90;;;4.73;;
12838;SDS011;6486;51.034;5.262;2022-12-18T02:47:29;10.23;;;5.30;;
12838;SDS011;6486;51.034;5.262;2022-12-18T02:50:02;16.60;;;5.70;;
12838;SDS011;6486;51.034;5.262;2022-12-18T03:01:06;15.37;;;7.17;;
12838;SDS011;6486;51.034;5.262;2022-12-18T03:03:48;18.53;;;6.07;;
12838;SDS011;6486;51.034;5.262;2022-12-18T03:06:33;13.37;;;5.50;;
12838;SDS011;6486;51.034;5.262;2022-12-18T03:09:06;19.17;;;8.00;;
12838;SDS011;6486;51.034;5.262;2022-12-18T03:11:37;13.10;;;5.80;;
12838;SDS011;6486;51.034;5.262;2022-12-18T03:14:25;15.43;;;5.30;;
12838;SDS011;6486;51.034;5.262;2022-12-18T03:16:56;10.10;;;5.17;;
12838;SDS011;6486;51.034;5.262;2022-12-18T03:19:26;12.70;;;5.97;;
12838;SDS011;6486;51.034;5.262;2022-12-18T03:21:55;15.00;;;6.80;;
12838;SDS011;6486;51.034;5.262;2022-12-18T03:24:22;16.60;;;5.63;;
12838;SDS011;6486;51.034;5.262;2022-12-18T03:26:51;15.93;;;6.13;;
12838;SDS011;6486;51.034;5.262;2022-12-18T03:29:21;19.47;;;7.00;;
12838;SDS011;6486;51.034;5.262;2022-12-18T03:31:55;13.10;;;5.07;;
12838;SDS011;6486;51.034;5.262;2022-12-18T03:34:29;9.73;;;4.90;;
12838;SDS011;6486;51.034;5.262;2022-12-18T03:36:56;20.70;;;5.90;;
12838;SDS011;6486;51.034;5.262;2022-12-18T03:39:23;11.60;;;5.07;;
12838;SDS011;6486;51.034;5.262;2022-12-18T03:41:55;13.23;;;6.47;;
12838;SDS011;6486;51.034;5.262;2022-12-18T03:47:21;16.53;;;5.67;;
12838;SDS011;6486;51.034;5.262;2022-12-18T03:50:02;10.33;;;5.30;;
12838;SDS011;6486;51.034;5.262;2022-12-18T03:52:41;13.90;;;6.70;;
12838;SDS011;6486;51.034;5.262;2022-12-18T03:55:16;17.47;;;5.50;;
12838;SDS011;6486;51.034;5.262;2022-12-18T03:57:44;20.63;;;5.10;;
12838;SDS011;6486;51.034;5.262;2022-12-18T04:00:12;10.87;;;6.80;;
12838;SDS011;6486;51.034;5.262;2022-12-18T04:02:42;8.07;;;4.70;;
12838;SDS011;6486;51.034;5.262;2022-12-18T04:05:12;14.20;;;5.47;;
12838;SDS011;6486;51.034;5.262;2022-12-18T04:07:40;13.73;;;4.87;;
12838;SDS011;6486;51.034;5.262;2022-12-18T04:10:06;15.63;;;7.07;;
12838;SDS011;6486;51.034;5.262;2022-12-18T04:12:37;18.37;;;6.63;;
12838;SDS011;6486;51.034;5.262;2022-12-18T04:15:04;12.07;;;6.23;;
12838;SDS011;6486;51.034;5.262;2022-12-18T04:17:30;7.33;;;5.03;;
12838;SDS011;6486;51.034;5.262;2022-12-18T04:19:56;13.87;;;6.33;;
12838;SDS011;6486;51.034;5.262;2022-12-18T04:22:21;14.60;;;5.77;;
12838;SDS011;6486;51.034;5.262;2022-12-18T04:24:47;13.37;;;5.57;;
12838;SDS011;6486;51.034;5.262;2022-12-18T04:27:13;15.03;;;5.67;;
12838;SDS011;6486;51.034;5.262;2022-12-18T04:29:39;15.37;;;6.37;;
12838;SDS011;6486;51.034;5.262;2022-12-18T04:32:04;12.03;;;6.20;;
12838;SDS011;6486;51.034;5.262;2022-12-18T04:34:30;20.00;;;7.27;;
12838;SDS011;6486;51.034;5.262;2022-12-18T04:36:56;12.57;;;6.23;;
12838;SDS011;6486;51.034;5.262;2022-12-18T04:39:21;12.23;;;6.20;;
12838;SDS011;6486;51.034;5.262;2022-12-18T04:41:47;15.40;;;6.33;;
12838;SDS011;6486;51.034;5.262;2022-12-18T04:44:12;17.83;;;6.10;;
12838;SDS011;6486;51.034;5.262;2022-12-18T04:46:38;15.70;;;6.43;;
12838;SDS011;6486;51.034;5.262;2022-12-18T04:49:03;11.50;;;4.87;;
12838;SDS011;6486;51.034;5.262;2022-12-18T04:51:29;12.23;;;6.33;;
12838;SDS011;6486;51.034;5.262;2022-12-18T04:53:55;14.17;;;5.07;;
12838;SDS011;6486;51.034;5.262;2022-12-18T04:56:20;16.77;;;5.67;;
12838;SDS011;6486;51.034;5.262;2022-12-18T04:58:46;13.20;;;5.77;;
12838;SDS011;6486;51.034;5.262;2022-12-18T05:01:13;11.53;;;6.17;;
12838;SDS011;6486;51.034;5.262;2022-12-18T05:03:40;12.20;;;5.87;;
12838;SDS011;6486;51.034;5.262;2022-12-18T05:06:06;12.00;;;4.70;;
12838;SDS011;6486;51.034;5.262;2022-12-18T05:08:32;12.63;;;4.67;;
12838;SDS011;6486;51.034;5.262;2022-12-18T05:11:02;13.00;;;5.10;;
12838;SDS011;6486;51.034;5.262;2022-12-18T05:13:32;13.33;;;4.93;;
12838;SDS011;6486;51.034;5.262;2022-12-18T05:15:58;14.57;;;5.10;;
12838;SDS011;6486;51.034;5.262;2022-12-18T05:18:24;12.20;;;4.37;;
12838;SDS011;6486;51.034;5.262;2022-12-18T05:20:51;14.40;;;4.43;;
12838;SDS011;6486;51.034;5.262;2022-12-18T05:23:18;8.90;;;4.73;;
12838;SDS011;6486;51.034;5.262;2022-12-18T05:26:18;11.10;;;6.70;;
12838;SDS011;6486;51.034;5.262;2022-12-18T05:28:39;3.40;;;3.13;;
12838;SDS011;6486;51.034;5.262;2022-12-18T05:31:05;10.27;;;4.57;;
12838;SDS011;6486;51.034;5.262;2022-12-18T05:33:31;5.73;;;3.93;;
12838;SDS011;6486;51.034;5.262;2022-12-18T05:35:59;8.60;;;3.93;;
12838;SDS011;6486;51.034;5.262;2022-12-18T05:38:26;8.47;;;4.37;;
12838;SDS011;6486;51.034;5.262;2022-12-18T05:40:54;6.77;;;4.10;;
12838;SDS011;6486;51.034;5.262;2022-12-18T05:43:20;6.57;;;4.03;;
12838;SDS011;6486;51.034;5.262;2022-12-18T05:45:49;13.77;;;4.23;;
12838;SDS011;6486;51.034;5.262;2022-12-18T05:48:16;8.50;;;4.17;;
12838;SDS011;6486;51.034;5.262;2022-12-18T05:50:43;9.63;;;4.10;;
12838;SDS011;6486;51.034;5.262;2022-12-18T05:53:13;9.73;;;3.90;;
12838;SDS011;6486;51.034;5.262;2022-12-18T05:55:40;6.37;;;3.67;;
12838;SDS011;6486;51.034;5.262;2022-12-18T05:58:07;8.53;;;4.70;;
12838;SDS011;6486;51.034;5.262;2022-12-18T06:00:34;8.70;;;2.70;;
12838;SDS011;6486;51.034;5.262;2022-12-18T06:03:04;13.70;;;3.80;;
12838;SDS011;6486;51.034;5.262;2022-12-18T06:05:34;3.73;;;2.80;;
12838;SDS011;6486;51.034;5.262;2022-12-18T06:08:02;9.77;;;4.40;;
12838;SDS011;6486;51.034;5.262;2022-12-18T06:10:28;7.53;;;3.83;;
12838;SDS011;6486;51.034;5.262;2022-12-18T06:12:53;10.37;;;4.27;;
12838;SDS011;6486;51.034;5.262;2022-12-18T06:15:19;6.67;;;3.17;;
12838;SDS011;6486;51.034;5.262;2022-12-18T06:17:44;8.13;;;4.07;;
12838;SDS011;6486;51.034;5.262;2022-12-18T06:20:10;4.50;;;3.07;;
12838;SDS011;6486;51.034;5.262;2022-12-18T06:22:35;8.13;;;4.27;;
12838;SDS011;6486;51.034;5.262;2022-12-18T06:25:01;11.47;;;3.63;;
12838;SDS011;6486;51.034;5.262;2022-12-18T06:27:27;3.97;;;2.70;;
12838;SDS011;6486;51.034;5.262;2022-12-18T06:29:52;7.00;;;3.00;;
12838;SDS011;6486;51.034;5.262;2022-12-18T06:32:18;4.13;;;2.57;;
12838;SDS011;6486;51.034;5.262;2022-12-18T06:34:44;6.03;;;3.50;;
12838;SDS011;6486;51.034;5.262;2022-12-18T06:37:09;7.57;;;2.93;;
12838;SDS011;6486;51.034;5.262;2022-12-18T06:39:35;5.40;;;4.17;;
12838;SDS011;6486;51.034;5.262;2022-12-18T06:42:00;6.03;;;3.73;;
12838;SDS011;6486;51.034;5.262;2022-12-18T06:44:26;7.03;;;3.40;;
12838;SDS011;6486;51.034;5.262;2022-12-18T06:46:51;4.40;;;2.60;;
12838;SDS011;6486;51.034;5.262;2022-12-18T06:49:17;5.60;;;2.53;;
12838;SDS011;6486;51.034;5.262;2022-12-18T06:51:42;6.83;;;3.53;;
12838;SDS011;6486;51.034;5.262;2022-12-18T06:54:08;5.57;;;2.93;;
12838;SDS011;6486;51.034;5.262;2022-12-18T06:56:34;4.90;;;2.50;;
12838;SDS011;6486;51.034;5.262;2022-12-18T06:59:00;4.40;;;2.60;;
12838;SDS011;6486;51.034;5.262;2022-12-18T07:01:25;4.43;;;3.17;;
12838;SDS011;6486;51.034;5.262;2022-12-18T07:03:55;11.10;;;3.50;;
12838;SDS011;6486;51.034;5.262;2022-12-18T07:06:22;6.43;;;3.07;;
12838;SDS011;6486;51.034;5.262;2022-12-18T07:08:49;7.97;;;2.73;;
12838;SDS011;6486;51.034;5.262;2022-12-18T07:11:17;5.03;;;3.53;;
12838;SDS011;6486;51.034;5.262;2022-12-18T07:13:44;7.43;;;2.90;;
12838;SDS011;6486;51.034;5.262;2022-12-18T07:16:19;6.83;;;3.40;;
12838;SDS011;6486;51.034;5.262;2022-12-18T07:18:45;10.03;;;4.27;;
12838;SDS011;6486;51.034;5.262;2022-12-18T07:21:13;8.37;;;2.50;;
12838;SDS011;6486;51.034;5.262;2022-12-18T07:23:40;4.63;;;3.00;;
12838;SDS011;6486;51.034;5.262;2022-12-18T07:26:07;3.73;;;2.90;;
12838;SDS011;6486;51.034;5.262;2022-12-18T07:28:35;5.27;;;2.70;;
12838;SDS011;6486;51.034;5.262;2022-12-18T07:31:08;8.30;;;2.80;;
12838;SDS011;6486;51.034;5.262;2022-12-18T07:33:36;4.20;;;2.80;;
12838;SDS011;6486;51.034;5.262;2022-12-18T07:36:02;3.43;;;2.30;;
12838;SDS011;6486;51.034;5.262;2022-12-18T07:38:30;6.00;;;3.30;;
12838;SDS011;6486;51.034;5.262;2022-12-18T07:41:06;5.87;;;3.67;;
12838;SDS011;6486;51.034;5.262;2022-12-18T07:43:34;5.67;;;3.03;;
12838;SDS011;6486;51.034;5.262;2022-12-18T07:46:00;10.10;;;3.20;;
12838;SDS011;6486;51.034;5.262;2022-12-18T07:48:25;5.37;;;2.93;;
12838;SDS011;6486;51.034;5.262;2022-12-18T07:50:51;5.03;;;3.53;;
12838;SDS011;6486;51.034;5.262;2022-12-18T07:53:17;3.30;;;2.97;;
12838;SDS011;6486;51.034;5.262;2022-12-18T07:55:42;6.33;;;4.30;;
12838;SDS011;6486;51.034;5.262;2022-12-18T07:58:08;8.00;;;4.40;;
12838;SDS011;6486;51.034;5.262;2022-12-18T08:00:34;5.57;;;3.37;;
12838;SDS011;6486;51.034;5.262;2022-12-18T08:03:00;7.40;;;4.07;;
12838;SDS011;6486;51.034;5.262;2022-12-18T08:05:26;7.23;;;4.33;;
12838;SDS011;6486;51.034;5.262;2022-12-18T08:07:52;5.43;;;2.67;;
12838;SDS011;6486;51.034;5.262;2022-12-18T08:10:18;13.57;;;3.80;;
12838;SDS011;6486;51.034;5.262;2022-12-18T08:12:44;5.47;;;3.43;;
12838;SDS011;6486;51.034;5.262;2022-12-18T08:15:10;5.07;;;3.00;;
12838;SDS011;6486;51.034;5.262;2022-12-18T08:17:36;7.40;;;3.13;;
12838;SDS011;6486;51.034;5.262;2022-12-18T08:20:02;8.10;;;2.30;;
12838;SDS011;6486;51.034;5.262;2022-12-18T08:22:28;9.57;;;4.17;;
12838;SDS011;6486;51.034;5.262;2022-12-18T08:24:54;7.80;;;4.43;;
12838;SDS011;6486;51.034;5.262;2022-12-18T08:27:19;8.63;;;3.80;;
12838;SDS011;6486;51.034;5.262;2022-12-18T08:29:45;5.37;;;3.10;;
12838;SDS011;6486;51.034;5.262;2022-12-18T08:32:11;9.37;;;3.27;;
12838;SDS011;6486;51.034;5.262;2022-12-18T08:34:36;5.43;;;3.10;;
12838;SDS011;6486;51.034;5.262;2022-12-18T08:37:02;5.97;;;2.93;;
12838;SDS011;6486;51.034;5.262;2022-12-18T08:39:27;9.97;;;3.60;;
12838;SDS011;6486;51.034;5.262;2022-12-18T08:41:53;10.17;;;4.10;;
12838;SDS011;6486;51.034;5.262;2022-12-18T08:44:37;5.53;;;3.17;;
12838;SDS011;6486;51.034;5.262;2022-12-18T08:47:03;6.23;;;3.63;;
12838;SDS011;6486;51.034;5.262;2022-12-18T08:49:29;9.97;;;4.27;;
12838;SDS011;6486;51.034;5.262;2022-12-18T08:51:55;4.70;;;3.37;;
12838;SDS011;6486;51.034;5.262;2022-12-18T08:54:22;13.73;;;4.10;;
12838;SDS011;6486;51.034;5.262;2022-12-18T08:56:49;7.30;;;3.33;;
12838;SDS011;6486;51.034;5.262;2022-12-18T08:59:15;7.33;;;4.07;;
12838;SDS011;6486;51.034;5.262;2022-12-18T09:01:44;5.33;;;3.63;;
12838;SDS011;6486;51.034;5.262;2022-12-18T09:04:10;8.40;;;4.60;;
12838;SDS011;6486;51.034;5.262;2022-12-18T09:06:36;6.60;;;3.90;;
12838;SDS011;6486;51.034;5.262;2022-12-18T09:09:02;10.80;;;4.97;;
12838;SDS011;6486;51.034;5.262;2022-12-18T09:11:29;7.03;;;3.53;;
12838;SDS011;6486;51.034;5.262;2022-12-18T09:13:55;10.50;;;3.67;;
12838;SDS011;6486;51.034;5.262;2022-12-18T09:16:22;7.43;;;3.43;;
12838;SDS011;6486;51.034;5.262;2022-12-18T09:18:49;7.43;;;4.10;;
12838;SDS011;6486;51.034;5.262;2022-12-18T09:21:16;9.77;;;3.40;;
12838;SDS011;6486;51.034;5.262;2022-12-18T09:23:43;6.67;;;3.00;;
12838;SDS011;6486;51.034;5.262;2022-12-18T09:26:09;7.53;;;4.20;;
12838;SDS011;6486;51.034;5.262;2022-12-18T09:28:35;9.77;;;4.00;;
12838;SDS011;6486;51.034;5.262;2022-12-18T09:31:03;5.80;;;3.33;;
12838;SDS011;6486;51.034;5.262;2022-12-18T09:33:32;5.80;;;3.50;;
12838;SDS011;6486;51.034;5.262;2022-12-18T09:36:00;8.67;;;3.77;;
12838;SDS011;6486;51.034;5.262;2022-12-18T09:38:27;5.07;;;3.30;;
12838;SDS011;6486;51.034;5.262;2022-12-18T09:40:53;6.47;;;3.63;;
12838;SDS011;6486;51.034;5.262;2022-12-18T09:43:39;9.17;;;3.50;;
12838;SDS011;6486;51.034;5.262;2022-12-18T09:46:11;9.40;;;4.10;;
12838;SDS011;6486;51.034;5.262;2022-12-18T09:48:44;10.40;;;4.57;;
12838;SDS011;6486;51.034;5.262;2022-12-18T09:51:15;8.43;;;4.77;;
12838;SDS011;6486;51.034;5.262;2022-12-18T09:53:56;7.47;;;3.73;;
12838;SDS011;6486;51.034;5.262;2022-12-18T09:56:27;5.27;;;3.67;;
12838;SDS011;6486;51.034;5.262;2022-12-18T09:58:59;9.87;;;5.20;;
12838;SDS011;6486;51.034;5.262;2022-12-18T10:01:27;5.40;;;3.27;;
12838;SDS011;6486;51.034;5.262;2022-12-18T10:03:54;7.40;;;3.47;;
12838;SDS011;6486;51.034;5.262;2022-12-18T10:06:28;9.20;;;3.37;;
12838;SDS011;6486;51.034;5.262;2022-12-18T10:14:36;7.43;;;3.73;;
12838;SDS011;6486;51.034;5.262;2022-12-18T10:17:26;12.13;;;4.80;;
12838;SDS011;6486;51.034;5.262;2022-12-18T10:20:16;9.40;;;4.73;;
12838;SDS011;6486;51.034;5.262;2022-12-18T10:22:57;6.87;;;3.77;;
12838;SDS011;6486;51.034;5.262;2022-12-18T10:28:10;12.07;;;4.53;;
12838;SDS011;6486;51.034;5.262;2022-12-18T10:30:39;10.13;;;4.53;;
12838;SDS011;6486;51.034;5.262;2022-12-18T10:33:08;10.23;;;3.97;;
12838;SDS011;6486;51.034;5.262;2022-12-18T10:35:42;9.03;;;4.53;;
12838;SDS011;6486;51.034;5.262;2022-12-18T10:43:24;11.13;;;4.77;;
12838;SDS011;6486;51.034;5.262;2022-12-18T10:51:29;6.53;;;3.20;;
12838;SDS011;6486;51.034;5.262;2022-12-18T10:56:27;10.53;;;4.63;;
12838;SDS011;6486;51.034;5.262;2022-12-18T10:58:56;5.90;;;3.23;;
12838;SDS011;6486;51.034;5.262;2022-12-18T11:01:26;10.47;;;3.90;;
12838;SDS011;6486;51.034;5.262;2022-12-18T11:06:19;9.27;;;4.37;;
12838;SDS011;6486;51.034;5.262;2022-12-18T11:09:58;6.03;;;3.43;;
12838;SDS011;6486;51.034;5.262;2022-12-18T11:11:50;3.37;;;2.50;;
12838;SDS011;6486;51.034;5.262;2022-12-18T11:14:24;6.50;;;3.43;;
12838;SDS011;6486;51.034;5.262;2022-12-18T11:16:52;10.90;;;4.53;;
12838;SDS011;6486;51.034;5.262;2022-12-18T11:21:55;6.97;;;3.40;;
12838;SDS011;6486;51.034;5.262;2022-12-18T11:24:27;7.83;;;4.17;;
12838;SDS011;6486;51.034;5.262;2022-12-18T11:26:57;8.70;;;4.47;;
12838;SDS011;6486;51.034;5.262;2022-12-18T11:34:39;13.00;;;3.77;;
12838;SDS011;6486;51.034;5.262;2022-12-18T11:37:08;11.33;;;5.20;;
12838;SDS011;6486;51.034;5.262;2022-12-18T11:42:12;5.70;;;4.10;;
12838;SDS011;6486;51.034;5.262;2022-12-18T11:47:44;7.47;;;4.57;;
12838;SDS011;6486;51.034;5.262;2022-12-18T11:50:14;8.63;;;3.77;;
12838;SDS011;6486;51.034;5.262;2022-12-18T11:52:47;8.67;;;3.30;;
12838;SDS011;6486;51.034;5.262;2022-12-18T11:55:56;15.73;;;4.10;;
12838;SDS011;6486;51.034;5.262;2022-12-18T12:03:50;5.53;;;4.33;;
12838;SDS011;6486;51.034;5.262;2022-12-18T12:16:41;12.80;;;4.90;;
12838;SDS011;6486;51.034;5.262;2022-12-18T12:19:44;7.57;;;3.43;;
12838;SDS011;6486;51.034;5.262;2022-12-18T12:25:40;6.50;;;3.13;;
12838;SDS011;6486;51.034;5.262;2022-12-18T12:30:57;7.73;;;4.23;;
12838;SDS011;6486;51.034;5.262;2022-12-18T12:39:16;8.03;;;4.03;;
12838;SDS011;6486;51.034;5.262;2022-12-18T12:41:46;6.43;;;3.80;;
12838;SDS011;6486;51.034;5.262;2022-12-18T12:44:32;9.03;;;3.90;;
12838;SDS011;6486;51.034;5.262;2022-12-18T12:47:10;8.47;;;4.13;;
12838;SDS011;6486;51.034;5.262;2022-12-18T12:49:46;9.87;;;4.63;;
12838;SDS011;6486;51.034;5.262;2022-12-18T12:52:17;7.93;;;4.27;;
12838;SDS011;6486;51.034;5.262;2022-12-18T12:54:53;7.13;;;4.20;;
12838;SDS011;6486;51.034;5.262;2022-12-18T12:57:21;9.80;;;5.67;;
12838;SDS011;6486;51.034;5.262;2022-12-18T12:59:59;8.73;;;3.70;;
12838;SDS011;6486;51.034;5.262;2022-12-18T13:02:47;6.10;;;3.50;;
12838;SDS011;6486;51.034;5.262;2022-12-18T13:08:34;8.90;;;4.07;;
12838;SDS011;6486;51.034;5.262;2022-12-18T13:11:28;6.57;;;3.73;;
12838;SDS011;6486;51.034;5.262;2022-12-18T13:14:23;7.47;;;3.33;;
12838;SDS011;6486;51.034;5.262;2022-12-18T13:22:54;8.73;;;4.50;;
12838;SDS011;6486;51.034;5.262;2022-12-18T13:25:26;10.77;;;4.10;;
12838;SDS011;6486;51.034;5.262;2022-12-18T13:27:58;10.17;;;5.43;;
12838;SDS011;6486;51.034;5.262;2022-12-18T13:35:40;5.87;;;3.97;;
12838;SDS011;6486;51.034;5.262;2022-12-18T13:41:36;12.00;;;4.93;;
12838;SDS011;6486;51.034;5.262;2022-12-18T13:43:55;7.83;;;4.50;;
12838;SDS011;6486;51.034;5.262;2022-12-18T13:46:47;15.87;;;5.43;;
12838;SDS011;6486;51.034;5.262;2022-12-18T13:52:01;7.93;;;4.40;;
12838;SDS011;6486;51.034;5.262;2022-12-18T13:54:39;10.10;;;4.30;;
12838;SDS011;6486;51.034;5.262;2022-12-18T13:57:24;5.53;;;4.00;;
12838;SDS011;6486;51.034;5.262;2022-12-18T13:59:55;6.03;;;4.73;;
12838;SDS011;6486;51.034;5.262;2022-12-18T14:02:25;15.00;;;5.63;;
12838;SDS011;6486;51.034;5.262;2022-12-18T14:04:53;7.97;;;4.47;;
12838;SDS011;6486;51.034;5.262;2022-12-18T14:07:23;9.77;;;4.53;;
12838;SDS011;6486;51.034;5.262;2022-12-18T14:09:54;9.87;;;4.10;;
12838;SDS011;6486;51.034;5.262;2022-12-18T14:12:25;9.73;;;4.30;;
12838;SDS011;6486;51.034;5.262;2022-12-18T14:17:53;5.23;;;3.53;;
12838;SDS011;6486;51.034;5.262;2022-12-18T14:20:24;6.10;;;4.03;;
12838;SDS011;6486;51.034;5.262;2022-12-18T14:22:52;12.40;;;5.10;;
12838;SDS011;6486;51.034;5.262;2022-12-18T14:25:22;10.80;;;5.67;;
12838;SDS011;6486;51.034;5.262;2022-12-18T14:30:51;8.97;;;3.33;;
12838;SDS011;6486;51.034;5.262;2022-12-18T14:33:18;11.30;;;4.30;;
12838;SDS011;6486;51.034;5.262;2022-12-18T14:35:52;8.80;;;3.47;;
12838;SDS011;6486;51.034;5.262;2022-12-18T14:38:25;23.67;;;7.20;;
12838;SDS011;6486;51.034;5.262;2022-12-18T14:40:55;9.40;;;4.93;;
12838;SDS011;6486;51.034;5.262;2022-12-18T14:43:28;10.67;;;5.37;;
12838;SDS011;6486;51.034;5.262;2022-12-18T14:45:56;10.10;;;5.57;;
12838;SDS011;6486;51.034;5.262;2022-12-18T14:48:41;10.97;;;5.03;;
12838;SDS011;6486;51.034;5.262;2022-12-18T14:51:17;10.93;;;4.77;;
12838;SDS011;6486;51.034;5.262;2022-12-18T14:57:11;14.17;;;5.73;;
12838;SDS011;6486;51.034;5.262;2022-12-18T14:59:14;10.67;;;4.87;;
12838;SDS011;6486;51.034;5.262;2022-12-18T15:04:40;9.27;;;5.90;;
12838;SDS011;6486;51.034;5.262;2022-12-18T15:07:20;13.77;;;5.87;;
12838;SDS011;6486;51.034;5.262;2022-12-18T15:12:41;11.53;;;6.30;;
12838;SDS011;6486;51.034;5.262;2022-12-18T15:20:32;11.03;;;4.63;;
12838;SDS011;6486;51.034;5.262;2022-12-18T15:23:05;15.67;;;5.13;;
12838;SDS011;6486;51.034;5.262;2022-12-18T15:25:38;10.27;;;4.93;;
12838;SDS011;6486;51.034;5.262;2022-12-18T15:28:04;12.97;;;4.03;;
12838;SDS011;6486;51.034;5.262;2022-12-18T15:36:18;17.07;;;5.27;;
12838;SDS011;6486;51.034;5.262;2022-12-18T15:38:48;12.37;;;5.27;;
12838;SDS011;6486;51.034;5.262;2022-12-18T15:41:15;8.27;;;4.27;;
12838;SDS011;6486;51.034;5.262;2022-12-18T15:43:42;12.03;;;3.67;;
12838;SDS011;6486;51.034;5.262;2022-12-18T15:46:10;12.17;;;4.97;;
12838;SDS011;6486;51.034;5.262;2022-12-18T15:48:44;7.93;;;4.50;;
12838;SDS011;6486;51.034;5.262;2022-12-18T15:51:19;9.93;;;3.97;;
12838;SDS011;6486;51.034;5.262;2022-12-18T15:53:47;8.67;;;3.40;;
12838;SDS011;6486;51.034;5.262;2022-12-18T15:56:15;10.63;;;4.23;;
12838;SDS011;6486;51.034;5.262;2022-12-18T15:58:59;12.50;;;4.90;;
12838;SDS011;6486;51.034;5.262;2022-12-18T16:01:27;13.60;;;4.20;;
12838;SDS011;6486;51.034;5.262;2022-12-18T16:03:54;9.30;;;3.83;;
12838;SDS011;6486;51.034;5.262;2022-12-18T16:06:20;9.90;;;3.57;;
12838;SDS011;6486;51.034;5.262;2022-12-18T16:08:46;8.03;;;3.67;;
12838;SDS011;6486;51.034;5.262;2022-12-18T16:11:25;8.87;;;3.93;;
12838;SDS011;6486;51.034;5.262;2022-12-18T16:16:48;7.67;;;3.70;;
12838;SDS011;6486;51.034;5.262;2022-12-18T16:19:15;10.63;;;4.03;;
12838;SDS011;6486;51.034;5.262;2022-12-18T16:21:41;11.20;;;3.17;;
12838;SDS011;6486;51.034;5.262;2022-12-18T16:24:11;8.43;;;4.83;;
12838;SDS011;6486;51.034;5.262;2022-12-18T16:26:42;15.30;;;5.17;;
12838;SDS011;6486;51.034;5.262;2022-12-18T16:29:08;11.20;;;4.30;;
12838;SDS011;6486;51.034;5.262;2022-12-18T16:31:34;8.33;;;4.23;;
12838;SDS011;6486;51.034;5.262;2022-12-18T16:34:11;10.23;;;4.63;;
12838;SDS011;6486;51.034;5.262;2022-12-18T16:36:47;11.43;;;4.10;;
12838;SDS011;6486;51.034;5.262;2022-12-18T16:39:16;10.50;;;4.43;;
12838;SDS011;6486;51.034;5.262;2022-12-18T16:41:42;7.73;;;2.93;;
12838;SDS011;6486;51.034;5.262;2022-12-18T16:44:08;12.83;;;4.20;;
12838;SDS011;6486;51.034;5.262;2022-12-18T16:46:35;8.80;;;3.83;;
12838;SDS011;6486;51.034;5.262;2022-12-18T16:49:01;5.30;;;3.80;;
12838;SDS011;6486;51.034;5.262;2022-12-18T16:51:27;9.17;;;4.30;;
12838;SDS011;6486;51.034;5.262;2022-12-18T16:53:53;6.77;;;3.63;;
12838;SDS011;6486;51.034;5.262;2022-12-18T16:56:19;9.83;;;4.57;;
12838;SDS011;6486;51.034;5.262;2022-12-18T16:58:55;10.93;;;4.10;;
12838;SDS011;6486;51.034;5.262;2022-12-18T17:01:22;6.90;;;3.57;;
12838;SDS011;6486;51.034;5.262;2022-12-18T17:03:54;9.40;;;4.03;;
12838;SDS011;6486;51.034;5.262;2022-12-18T17:06:22;13.77;;;4.10;;
12838;SDS011;6486;51.034;5.262;2022-12-18T17:08:53;9.50;;;3.83;;
12838;SDS011;6486;51.034;5.262;2022-12-18T17:11:28;9.20;;;4.37;;
12838;SDS011;6486;51.034;5.262;2022-12-18T17:13:55;9.03;;;4.40;;
12838;SDS011;6486;51.034;5.262;2022-12-18T17:16:21;14.83;;;4.67;;
12838;SDS011;6486;51.034;5.262;2022-12-18T17:18:48;10.23;;;4.87;;
12838;SDS011;6486;51.034;5.262;2022-12-18T17:21:14;8.40;;;4.90;;
12838;SDS011;6486;51.034;5.262;2022-12-18T17:23:40;9.73;;;4.97;;